Terminal Aerodrome Forecast
Issued by NWS Dodge City, KS

Home | Current Version | Previous Version | Graphics & Text | Print | Product List | Glossary Off
Versions: 1 2 3 4 5 6 7 8 9 10 11 12 13 14 15 16 17 18 19 20 21 22 23 24 25 26 27 28 29 30 31 32 33 34

000
FTUS43 KDDC 222328 CCB
TAFDDC
TAF COR
KDDC 222328Z 2300/2324 17025G35KT P6SM BKN025
     FM230200 18015G25KT P6SM VCTS SCT040CB BKN250
     FM230600 18015G25KT P6SM BKN010=

USA.gov is the U.S. government's official web portal to all federal, state and local government web resources and services.